Time;durP1;ratioP1;P1;durP2;ratioP2;P2;SDS_P1;SDS_P2;PMS_P1;PMS_P2;Temp;Humidity;BMP_temperature;BMP_pressure;BME280_temperature;BME280_humidity;BME280_pressure;Samples;Min_cycle;Max_cycle;Signal;HPM_P1;HPM_P2
2024/01/09 00:03:51;;;;;;;5.22;2.67;;;;;;;-6.10;51.21;101364.94;10512198;28;20048;-66
2024/01/09 00:08:54;;;;;;;6.80;3.30;;;;;;;-6.05;50.63;101381.22;10513488;28;20051;-67
2024/01/09 00:13:56;;;;;;;7.30;2.70;;;;;;;-6.05;50.87;101371.03;10512418;28;20155;-67
2024/01/09 00:18:58;;;;;;;4.30;2.35;;;;;;;-6.03;51.04;101359.19;10513204;28;20060;-67
2024/01/09 00:24:00;;;;;;;4.95;2.47;;;;;;;-6.09;51.28;101363.28;10496167;28;20048;-67
2024/01/09 00:29:02;;;;;;;7.30;3.38;;;;;;;-6.05;51.11;101365.09;10515453;28;20616;-65
2024/01/09 00:34:04;;;;;;;3.58;2.17;;;;;;;-6.00;51.62;101359.31;10513370;28;20051;-66
2024/01/09 00:39:06;;;;;;;5.38;2.33;;;;;;;-6.02;51.36;101373.69;10513086;28;20052;-66
2024/01/09 00:44:08;;;;;;;5.90;2.22;;;;;;;-5.99;51.28;101363.56;10508580;28;20947;-67
2024/01/09 00:49:11;;;;;;;4.63;2.53;;;;;;;-5.96;51.56;101365.34;10508980;28;20632;-66
2024/01/09 00:54:13;;;;;;;5.32;2.83;;;;;;;-6.05;51.34;101370.19;10508486;28;20051;-66
2024/01/09 00:59:15;;;;;;;5.43;2.72;;;;;;;-6.02;51.47;101368.59;10486898;28;20071;-66
2024/01/09 01:04:18;;;;;;;6.03;3.10;;;;;;;-5.98;51.31;101367.84;10500858;28;20048;-66
2024/01/09 01:09:20;;;;;;;4.53;2.80;;;;;;;-6.01;51.42;101364.38;10514002;28;20054;-66
2024/01/09 01:14:23;;;;;;;8.35;2.97;;;;;;;-6.14;51.23;101370.78;10514575;28;20168;-65
2024/01/09 01:19:26;;;;;;;5.38;2.53;;;;;;;-6.28;51.44;101369.50;10513442;28;20040;-65
2024/01/09 01:24:28;;;;;;;9.45;2.90;;;;;;;-6.33;52.02;101376.97;10513198;28;20075;-65
2024/01/09 01:29:30;;;;;;;5.43;1.98;;;;;;;-6.45;51.87;101381.69;10515495;28;20789;-64
2024/01/09 01:34:32;;;;;;;4.68;2.55;;;;;;;-6.37;51.87;101387.00;10520982;28;20399;-65
2024/01/09 01:39:36;;;;;;;5.95;2.38;;;;;;;-6.37;51.98;101384.47;10521631;28;20058;-65
2024/01/09 01:44:38;;;;;;;7.72;3.50;;;;;;;-6.33;52.15;101384.63;10515684;28;20040;-64
2024/01/09 01:49:40;;;;;;;6.20;2.95;;;;;;;-6.26;52.25;101378.91;10521129;28;20044;-65
2024/01/09 01:54:43;;;;;;;7.50;2.47;;;;;;;-6.27;52.60;101376.28;10520712;28;20171;-64
2024/01/09 01:59:46;;;;;;;10.38;3.25;;;;;;;-6.23;52.44;101380.66;10503216;28;20036;-65
2024/01/09 02:04:48;;;;;;;10.77;2.67;;;;;;;-6.29;52.20;101375.38;10502200;28;20067;-66
2024/01/09 02:09:53;;;;;;;5.93;2.97;;;;;;;-6.30;51.67;101376.22;10519077;28;20109;-66
2024/01/09 02:14:56;;;;;;;5.65;2.42;;;;;;;-6.36;52.71;101369.22;10502140;28;20144;-65
2024/01/09 02:20:02;;;;;;;7.30;2.78;;;;;;;-6.24;52.16;101374.72;10519885;28;21085;-66
2024/01/09 02:25:04;;;;;;;4.60;2.25;;;;;;;-6.27;52.28;101373.75;10485841;28;20044;-65
2024/01/09 02:30:07;;;;;;;3.58;1.90;;;;;;;-6.23;52.14;101376.44;10519319;28;20051;-66
2024/01/09 02:35:09;;;;;;;4.95;2.15;;;;;;;-6.28;52.21;101369.50;10519417;28;20609;-66
2024/01/09 02:40:11;;;;;;;3.88;2.22;;;;;;;-6.24;52.31;101368.75;10518165;28;20052;-66
2024/01/09 02:45:13;;;;;;;5.47;2.63;;;;;;;-6.29;52.33;101368.63;10518025;28;20052;-65
2024/01/09 02:50:15;;;;;;;6.35;2.33;;;;;;;-6.39;52.33;101366.59;10501770;28;20044;-65
2024/01/09 02:55:17;;;;;;;4.97;2.25;;;;;;;-6.43;52.35;101372.41;10518158;28;20054;-65
2024/01/09 03:00:20;;;;;;;7.38;2.38;;;;;;;-6.41;52.08;101360.59;10518498;28;20407;-66
2024/01/09 03:05:22;;;;;;;5.10;3.13;;;;;;;-6.46;52.86;101361.28;10500326;28;20056;-65
2024/01/09 03:10:24;;;;;;;4.65;2.00;;;;;;;-6.38;52.17;101355.59;10517936;28;20044;-65
2024/01/09 03:15:27;;;;;;;3.75;2.25;;;;;;;-6.44;52.45;101359.66;10499732;28;20048;-65
2024/01/09 03:20:29;;;;;;;7.15;2.88;;;;;;;-6.36;52.49;101360.75;10518141;28;20048;-66
2024/01/09 03:25:31;;;;;;;4.50;2.17;;;;;;;-6.34;52.33;101361.66;10517655;28;20052;-65
2024/01/09 03:30:33;;;;;;;5.70;2.53;;;;;;;-6.39;52.14;101366.59;10516798;28;20047;-66
2024/01/09 03:35:35;;;;;;;5.65;2.92;;;;;;;-6.38;52.27;101363.22;10478815;28;20047;-66
2024/01/09 03:40:37;;;;;;;6.03;2.60;;;;;;;-6.33;52.19;101363.38;10495781;28;20517;-65
2024/01/09 03:45:39;;;;;;;6.03;2.95;;;;;;;-6.46;52.09;101359.59;10495916;28;20226;-66
2024/01/09 03:50:41;;;;;;;5.20;2.50;;;;;;;-6.57;52.45;101352.44;10514891;28;20044;-66
2024/01/09 03:55:43;;;;;;;4.68;2.53;;;;;;;-6.68;51.76;101353.78;10494454;28;20063;-65
2024/01/09 04:00:45;;;;;;;5.65;2.83;;;;;;;-6.77;51.94;101364.53;10509681;28;20136;-65
2024/01/09 04:05:47;;;;;;;5.80;3.10;;;;;;;-6.69;52.46;101352.94;10515414;28;20067;-65
2024/01/09 04:10:49;;;;;;;7.72;2.17;;;;;;;-6.83;51.48;101364.34;10515887;28;20046;-65
2024/01/09 04:15:51;;;;;;;5.88;3.10;;;;;;;-6.82;51.72;101349.91;10515757;28;20055;-66
2024/01/09 04:20:53;;;;;;;5.20;2.42;;;;;;;-6.89;51.40;101355.63;10516287;28;20048;-66
2024/01/09 04:25:55;;;;;;;5.63;2.67;;;;;;;-6.85;51.86;101363.41;10516225;28;20488;-65
2024/01/09 04:30:57;;;;;;;4.53;2.38;;;;;;;-6.87;52.32;101359.09;10515879;28;20064;-65
2024/01/09 04:35:59;;;;;;;6.72;2.50;;;;;;;-6.83;51.82;101353.28;10515629;28;20176;-65
2024/01/09 04:41:02;;;;;;;4.85;2.17;;;;;;;-6.86;51.74;101359.13;10515188;28;20048;-65
2024/01/09 04:46:03;;;;;;;4.55;2.15;;;;;;;-6.91;51.50;101353.06;10515811;28;20062;-64
2024/01/09 04:51:05;;;;;;;4.57;2.08;;;;;;;-6.99;51.89;101351.94;10515596;28;20040;-65
2024/01/09 04:56:08;;;;;;;4.88;2.28;;;;;;;-6.87;52.72;101356.56;10514755;28;20036;-66
2024/01/09 05:01:11;;;;;;;4.40;2.55;;;;;;;-6.89;51.58;101348.88;10515149;28;20040;-65
2024/01/09 05:06:15;;;;;;;7.32;2.25;;;;;;;-6.88;51.51;101348.03;10517058;28;20039;-65
2024/01/09 05:11:17;;;;;;;6.95;3.60;;;;;;;-7.07;50.71;101348.28;10517357;28;20040;-66
2024/01/09 05:16:21;;;;;;;6.22;2.55;;;;;;;-6.87;51.83;101338.75;10514938;28;20036;-66
2024/01/09 05:21:24;;;;;;;3.67;2.30;;;;;;;-6.84;52.03;101332.06;10486944;28;20048;-66
2024/01/09 05:26:26;;;;;;;3.75;2.28;;;;;;;-6.88;52.27;101337.00;10516789;28;20040;-66
2024/01/09 05:31:30;;;;;;;5.88;2.00;;;;;;;-6.86;52.10;101331.16;10504259;28;20443;-66
2024/01/09 05:36:32;;;;;;;4.75;2.30;;;;;;;-6.81;52.37;101344.91;10520981;28;20044;-66
2024/01/09 05:41:35;;;;;;;6.90;2.50;;;;;;;-6.85;52.64;101344.75;10520977;28;20906;-66
2024/01/09 05:46:37;;;;;;;5.40;2.78;;;;;;;-6.88;51.93;101335.34;10521159;28;20054;-65
2024/01/09 05:51:39;;;;;;;5.97;2.83;;;;;;;-6.87;51.88;101338.75;10520354;28;20036;-65
2024/01/09 05:56:41;;;;;;;3.97;2.05;;;;;;;-6.89;51.45;101340.38;10519959;28;20048;-65
2024/01/09 06:01:43;;;;;;;5.72;2.13;;;;;;;-7.15;51.20;101335.28;10519208;28;20972;-66
2024/01/09 06:06:45;;;;;;;5.32;2.67;;;;;;;-7.07;51.13;101338.94;10500970;28;20134;-66
2024/01/09 06:11:47;;;;;;;4.18;2.20;;;;;;;-7.04;51.46;101325.47;10501383;28;20079;-65
2024/01/09 06:16:49;;;;;;;4.28;2.00;;;;;;;-7.07;51.58;101338.94;10516774;28;20046;-66
2024/01/09 06:21:51;;;;;;;6.20;2.90;;;;;;;-7.01;52.19;101335.75;10501699;28;20381;-66
2024/01/09 06:26:53;;;;;;;5.32;2.45;;;;;;;-7.00;51.96;101334.94;10518309;28;20054;-66
2024/01/09 06:31:55;;;;;;;3.40;2.20;;;;;;;-6.91;52.37;101334.38;10516483;28;20197;-66
2024/01/09 06:36:57;;;;;;;5.90;2.25;;;;;;;-6.92;52.37;101337.72;10519051;28;20042;-65
2024/01/09 06:41:59;;;;;;;3.03;1.90;;;;;;;-6.93;52.37;101341.97;10517252;28;20050;-66
2024/01/09 06:47:01;;;;;;;7.45;2.00;;;;;;;-7.02;51.85;101341.66;10516828;28;20044;-66
2024/01/09 06:52:04;;;;;;;4.60;2.30;;;;;;;-7.20;51.22;101348.66;10517760;28;20427;-65
2024/01/09 06:57:06;;;;;;;3.90;2.00;;;;;;;-7.14;51.61;101347.19;10518419;28;20054;-65
2024/01/09 07:02:08;;;;;;;3.50;1.92;;;;;;;-7.06;52.66;101344.91;10515890;28;20055;-66
2024/01/09 07:07:12;;;;;;;4.13;1.70;;;;;;;-6.99;52.78;101351.06;10497294;28;20040;-66
2024/01/09 07:12:16;;;;;;;3.42;1.92;;;;;;;-7.05;51.94;101357.66;10517576;28;20547;-65
2024/01/09 07:17:18;;;;;;;6.57;2.30;;;;;;;-6.99;52.52;101356.16;10517241;28;20551;-65
2024/01/09 07:22:21;;;;;;;5.13;2.17;;;;;;;-6.99;51.68;101357.03;10516445;28;20062;-65
2024/01/09 07:27:23;;;;;;;3.83;1.90;;;;;;;-6.97;52.38;101360.47;10517426;28;20627;-64
2024/01/09 07:32:25;;;;;;;6.72;2.90;;;;;;;-6.96;52.66;101366.41;10516430;28;20139;-65
2024/01/09 07:37:27;;;;;;;3.38;2.03;;;;;;;-6.87;52.56;101369.25;10516978;28;20404;-65
2024/01/09 07:42:29;;;;;;;5.32;2.63;;;;;;;-6.85;52.70;101375.25;10481868;28;20113;-64
2024/01/09 07:47:34;;;;;;;2.85;1.63;;;;;;;-6.85;52.73;101377.81;10513342;28;20050;-65
2024/01/09 07:52:36;;;;;;;5.95;2.30;;;;;;;-6.77;52.77;101373.84;10515805;28;20504;-64
2024/01/09 07:57:38;;;;;;;4.50;2.22;;;;;;;-6.72;52.79;101378.25;10516966;28;20048;-65
2024/01/09 08:02:40;;;;;;;4.13;2.20;;;;;;;-6.63;52.44;101376.00;10515741;28;20155;-64
2024/01/09 08:07:42;;;;;;;6.25;2.45;;;;;;;-6.55;52.87;101381.34;10497981;28;20139;-65
2024/01/09 08:12:44;;;;;;;3.83;2.20;;;;;;;-6.48;51.77;101383.28;10515581;28;20056;-65
2024/01/09 08:17:46;;;;;;;3.53;2.05;;;;;;;-6.42;51.69;101386.00;10515773;28;20075;-67
2024/01/09 08:22:48;;;;;;;5.00;2.08;;;;;;;-6.33;51.10;101388.81;10515044;28;20039;-65
2024/01/09 08:27:50;;;;;;;4.47;2.42;;;;;;;-6.26;50.64;101385.66;10498681;28;20452;-66
2024/01/09 08:32:52;;;;;;;5.90;2.00;;;;;;;-6.17;50.53;101385.94;10515731;28;20056;-67
2024/01/09 08:37:55;;;;;;;4.90;2.20;;;;;;;-6.01;49.33;101382.19;10516523;28;20052;-66
2024/01/09 08:42:57;;;;;;;4.80;2.30;;;;;;;-5.96;48.48;101386.59;10504683;28;20048;-67
2024/01/09 08:47:59;;;;;;;3.25;1.85;;;;;;;-5.69;49.84;101391.63;10524586;28;20572;-64
2024/01/09 08:53:01;;;;;;;3.97;2.08;;;;;;;-5.43;49.70;101385.59;10524079;28;20046;-64
2024/01/09 08:58:03;;;;;;;7.00;2.67;;;;;;;-5.33;49.43;101381.59;10524494;28;20083;-63
2024/01/09 09:03:05;;;;;;;4.95;2.67;;;;;;;-5.14;48.68;101388.91;10500482;28;20087;-64
2024/01/09 09:08:07;;;;;;;5.65;2.85;;;;;;;-5.14;48.58;101384.69;10523846;28;20373;-64
2024/01/09 09:13:09;;;;;;;5.22;2.63;;;;;;;-5.18;47.73;101382.00;10522824;28;20116;-67
2024/01/09 09:18:11;;;;;;;4.78;2.53;;;;;;;-5.09;48.09;101372.03;10522410;28;20048;-66
2024/01/09 09:23:13;;;;;;;5.97;2.83;;;;;;;-5.00;47.75;101377.38;10521503;28;20251;-65
2024/01/09 09:28:15;;;;;;;5.07;2.50;;;;;;;-4.88;47.74;101382.81;10522375;28;20071;-65
2024/01/09 09:33:17;;;;;;;3.65;2.42;;;;;;;-4.82;46.53;101382.97;10503716;28;20143;-66
2024/01/09 09:38:22;;;;;;;2.95;1.83;;;;;;;-4.74;45.00;101381.47;10521800;28;20097;-67
2024/01/09 09:43:25;;;;;;;2.67;1.83;;;;;;;-4.78;44.85;101379.66;10521796;28;20064;-67
2024/01/09 09:48:28;;;;;;;4.18;2.22;;;;;;;-4.48;45.18;101379.56;10521649;28;20036;-68
2024/01/09 09:53:31;;;;;;;6.40;2.08;;;;;;;-4.36;43.78;101370.47;10521522;28;20051;-68
2024/01/09 09:58:34;;;;;;;4.40;1.73;;;;;;;-4.18;43.11;101360.66;10519652;28;20048;-68
2024/01/09 10:03:42;;;;;;;3.88;2.10;;;;;;;-4.04;44.31;101351.66;10520468;28;20052;-68
2024/01/09 10:08:48;;;;;;;3.83;2.00;;;;;;;-3.90;43.84;101354.47;10519784;28;20063;-67
2024/01/09 10:13:50;;;;;;;4.25;1.70;;;;;;;-3.93;43.45;101341.63;10502375;28;20419;-67
2024/01/09 10:18:56;;;;;;;4.65;2.00;;;;;;;-3.92;41.98;101346.78;10518864;28;20131;-68
2024/01/09 10:23:58;;;;;;;8.20;1.95;;;;;;;-3.79;43.48;101332.53;10502104;28;20094;-67
2024/01/09 10:29:01;;;;;;;3.65;1.85;;;;;;;-3.79;41.82;101322.31;10519291;28;20051;-67
2024/01/09 10:34:03;;;;;;;4.05;2.00;;;;;;;-3.61;43.22;101321.84;10518255;28;20152;-67
2024/01/09 10:39:08;;;;;;;3.50;1.98;;;;;;;-3.44;42.85;101310.22;10518655;28;20441;-68
2024/01/09 10:44:13;;;;;;;3.97;2.10;;;;;;;-3.56;40.14;101323.66;10517386;28;20040;-68
2024/01/09 10:49:16;;;;;;;3.60;1.70;;;;;;;-3.67;40.90;101305.53;10494060;28;20155;-68
2024/01/09 10:54:23;;;;;;;3.55;1.80;;;;;;;-3.44;41.01;101302.53;10515455;28;20036;-68
2024/01/09 10:59:25;;;;;;;5.88;2.10;;;;;;;-3.41;41.21;101298.38;10516078;28;20158;-66
2024/01/09 11:04:27;;;;;;;5.40;2.03;;;;;;;-3.36;40.87;101294.19;10515704;28;20043;-66
2024/01/09 11:09:31;;;;;;;5.13;2.00;;;;;;;-3.35;39.79;101287.38;10516046;28;20044;-66
2024/01/09 11:14:35;;;;;;;5.85;2.42;;;;;;;-3.27;38.16;101290.94;10516612;28;20040;-66
2024/01/09 11:19:38;;;;;;;5.63;2.28;;;;;;;-2.99;41.08;101277.78;10517109;28;20047;-66
2024/01/09 11:24:40;;;;;;;6.07;2.28;;;;;;;-2.98;39.08;101287.19;10515088;28;20131;-66
2024/01/09 11:29:50;;;;;;;6.22;2.70;;;;;;;-2.89;39.88;101269.41;10499796;28;20048;-67
2024/01/09 11:35:12;;;;;;;5.38;2.30;;;;;;;-2.91;38.10;101273.63;10516933;28;20064;-67
2024/01/09 11:40:17;;;;;;;3.75;1.73;;;;;;;-2.75;39.85;101267.06;10516671;28;20052;-67
2024/01/09 11:45:24;;;;;;;3.22;1.70;;;;;;;-2.61;39.42;101265.59;10517222;28;20072;-67
2024/01/09 11:50:26;;;;;;;4.15;2.08;;;;;;;-2.66;38.44;101252.69;10516321;28;20469;-66
2024/01/09 11:55:29;;;;;;;5.00;2.22;;;;;;;-2.69;37.81;101252.63;10516941;28;20055;-67
2024/01/09 12:00:31;;;;;;;5.13;2.17;;;;;;;-2.69;38.56;101237.28;10515956;28;20054;-67
2024/01/09 12:05:34;;;;;;;3.63;2.17;;;;;;;-2.57;37.85;101232.34;10514854;28;20130;-67
2024/01/09 12:10:43;;;;;;;3.63;1.77;;;;;;;-2.46;36.91;101237.59;10516036;28;20609;-67
2024/01/09 12:15:45;;;;;;;14.80;2.20;;;;;;;-2.46;36.64;101228.22;10515363;28;20134;-67
2024/01/09 12:20:48;;;;;;;3.60;1.80;;;;;;;-2.11;38.94;101219.28;10516641;28;20329;-67
2024/01/09 12:25:50;;;;;;;5.10;2.03;;;;;;;-1.98;38.12;101213.44;10515726;28;20458;-67
2024/01/09 12:30:53;;;;;;;3.88;1.90;;;;;;;-2.01;36.42;101210.00;10515778;28;20043;-67
2024/01/09 12:35:58;;;;;;;4.22;2.05;;;;;;;-1.90;37.59;101205.88;10514560;28;20052;-67
2024/01/09 12:41:01;;;;;;;3.80;1.92;;;;;;;-1.94;36.40;101196.41;10472283;28;20523;-67
2024/01/09 12:46:04;;;;;;;3.30;1.70;;;;;;;-1.66;37.42;101182.16;10474016;28;20094;-67
2024/01/09 12:51:08;;;;;;;3.78;1.80;;;;;;;-1.62;36.73;101181.34;10472841;28;20048;-67
2024/01/09 12:56:14;;;;;;;4.55;2.35;;;;;;;-1.57;36.69;101189.94;10455610;28;20063;-67
2024/01/09 13:01:17;;;;;;;4.30;2.15;;;;;;;-1.58;36.90;101167.69;10472851;28;20052;-67
2024/01/09 13:06:20;;;;;;;5.43;2.10;;;;;;;-1.74;35.20;101169.28;10473139;28;20040;-67
2024/01/09 13:11:22;;;;;;;5.20;2.25;;;;;;;-1.64;36.74;101165.09;10472889;28;20057;-66
2024/01/09 13:16:24;;;;;;;6.07;2.38;;;;;;;-1.56;35.90;101158.31;10472774;28;20052;-68
2024/01/09 13:21:26;;;;;;;3.00;1.70;;;;;;;-1.40;37.03;101155.03;10472156;28;20258;-67
2024/01/09 13:26:28;;;;;;;6.10;2.33;;;;;;;-1.29;36.88;101144.00;10472975;28;20064;-67
2024/01/09 13:31:30;;;;;;;4.25;2.25;;;;;;;-1.13;36.57;101150.13;10480451;28;20054;-67
2024/01/09 13:36:32;;;;;;;5.93;2.00;;;;;;;-1.06;36.90;101140.75;10479710;28;20135;-67
2024/01/09 13:41:34;;;;;;;4.22;2.05;;;;;;;-1.25;34.10;101148.28;10479022;28;20134;-66
2024/01/09 13:46:37;;;;;;;3.70;2.05;;;;;;;-1.07;36.13;101139.88;10479917;28;20044;-67
2024/01/09 13:51:39;;;;;;;8.95;3.10;;;;;;;-1.18;34.65;101144.06;10480103;28;20060;-67
2024/01/09 13:56:57;;;;;;;3.53;1.80;;;;;;;-1.17;34.33;101141.50;10479342;28;20049;-66
2024/01/09 14:01:59;;;;;;;5.10;2.00;;;;;;;-1.34;33.89;101145.69;10477421;28;20044;-67
2024/01/09 14:07:01;;;;;;;4.03;2.47;;;;;;;-1.26;35.14;101143.16;10475401;28;20055;-67
2024/01/09 14:12:06;;;;;;;6.40;2.40;;;;;;;-1.17;35.29;101128.66;10475420;28;20094;-67
2024/01/09 14:17:08;;;;;;;5.47;2.38;;;;;;;-1.20;35.51;101138.06;10477013;28;20048;-67
2024/01/09 14:22:10;;;;;;;3.60;2.00;;;;;;;-1.40;35.05;101130.25;10473726;28;20483;-67
2024/01/09 14:27:12;;;;;;;4.50;1.60;;;;;;;-1.31;35.35;101137.97;10473825;28;20560;-67
2024/01/09 14:32:14;;;;;;;4.72;2.42;;;;;;;-1.36;34.47;101136.25;10475061;28;20048;-68
2024/01/09 14:37:17;;;;;;;3.17;1.77;;;;;;;-1.41;35.21;101130.22;10474843;28;20533;-68
2024/01/09 14:42:19;;;;;;;5.13;1.85;;;;;;;-1.57;33.07;101130.94;10502398;28;20159;-68
2024/01/09 14:47:22;;;;;;;4.18;2.42;;;;;;;-1.75;32.95;101129.06;10519329;28;20503;-67
2024/01/09 14:52:24;;;;;;;3.92;1.88;;;;;;;-1.53;35.00;101120.72;10519762;28;20057;-67
2024/01/09 14:57:26;;;;;;;6.40;2.53;;;;;;;-1.57;34.94;101121.53;10512822;28;20047;-67
2024/01/09 15:02:28;;;;;;;3.67;2.13;;;;;;;-1.72;34.38;101115.44;10516163;28;20130;-68
2024/01/09 15:07:31;;;;;;;4.28;2.00;;;;;;;-1.70;35.50;101119.72;10518566;28;20056;-67
2024/01/09 15:12:33;;;;;;;4.72;2.10;;;;;;;-1.79;35.99;101129.03;10517107;28;20093;-67
2024/01/09 15:17:35;;;;;;;3.78;1.90;;;;;;;-1.79;36.34;101139.28;10533853;28;20087;-68
2024/01/09 15:22:41;;;;;;;4.82;1.80;;;;;;;-1.88;36.56;101139.22;10517077;28;20094;-67
2024/01/09 15:27:43;;;;;;;4.55;2.45;;;;;;;-2.10;37.66;101145.81;10499255;28;20051;-68
2024/01/09 15:32:45;;;;;;;7.50;2.05;;;;;;;-2.27;37.77;101155.91;10517053;28;20054;-68
2024/01/09 15:37:47;;;;;;;3.75;1.98;;;;;;;-2.45;37.70;101158.22;10498792;28;20060;-69
2024/01/09 15:42:49;;;;;;;5.03;2.47;;;;;;;-2.58;36.11;101158.06;10516460;28;20050;-68
2024/01/09 15:47:54;;;;;;;3.60;1.90;;;;;;;-2.55;37.36;101148.69;10516650;28;20044;-68
2024/01/09 15:52:57;;;;;;;4.55;2.25;;;;;;;-2.60;36.19;101145.25;10514849;28;20040;-68
2024/01/09 15:58:02;;;;;;;3.90;2.00;;;;;;;-2.58;38.27;101160.63;10515106;28;20048;-67
2024/01/09 16:03:04;;;;;;;6.13;1.92;;;;;;;-2.77;38.75;101159.50;10516059;28;20121;-67
2024/01/09 16:08:10;;;;;;;6.32;2.30;;;;;;;-2.81;38.58;101165.41;10516641;28;20592;-67
2024/01/09 16:13:12;;;;;;;2.55;1.63;;;;;;;-2.93;39.00;101161.00;10530460;28;20081;-66
2024/01/09 16:18:14;;;;;;;4.20;1.88;;;;;;;-2.93;38.29;101158.44;10515285;28;20044;-67
2024/01/09 16:23:17;;;;;;;2.83;1.50;;;;;;;-2.94;37.96;101166.09;10497629;28;20135;-67
2024/01/09 16:28:19;;;;;;;3.17;1.90;;;;;;;-2.90;38.67;101163.59;10512862;28;20385;-67
2024/01/09 16:33:21;;;;;;;27.85;10.38;;;;;;;-2.95;37.22;101178.03;10512850;28;20046;-67
2024/01/09 16:38:28;;;;;;;7.38;3.60;;;;;;;-2.93;37.04;101171.25;10515255;28;20079;-62
2024/01/09 16:43:30;;;;;;;5.75;2.33;;;;;;;-2.93;37.59;101172.94;10514542;28;20067;-62
2024/01/09 16:48:34;;;;;;;9.57;2.28;;;;;;;-3.01;36.54;101177.09;10515580;28;20068;-63
2024/01/09 16:53:45;;;;;;;4.32;1.90;;;;;;;-3.01;35.04;101169.41;10515123;28;20727;-64
2024/01/09 16:58:50;;;;;;;6.03;2.15;;;;;;;-2.99;36.92;101173.72;10527846;28;20072;-63
2024/01/09 17:03:53;;;;;;;6.05;2.20;;;;;;;-3.04;36.97;101180.44;10521131;28;20168;-63
2024/01/09 17:08:55;;;;;;;3.60;1.83;;;;;;;-3.19;36.83;101176.81;10523854;28;20140;-62
2024/01/09 17:13:57;;;;;;;3.60;1.90;;;;;;;-3.20;37.49;101175.09;10505530;28;20051;-62
2024/01/09 17:18:59;;;;;;;6.95;2.25;;;;;;;-3.33;38.41;101174.03;10522677;28;20544;-63
2024/01/09 17:24:01;;;;;;;6.30;2.47;;;;;;;-3.35;38.72;101177.41;10522774;28;20032;-62
2024/01/09 17:29:03;;;;;;;6.30;2.33;;;;;;;-3.46;38.42;101186.59;10522910;28;20496;-62
2024/01/09 17:34:06;;;;;;;3.35;2.00;;;;;;;-3.49;38.72;101187.41;10522450;28;20048;-62
2024/01/09 17:39:09;;;;;;;4.07;1.90;;;;;;;-3.51;39.65;101196.75;10522782;28;20151;-62
2024/01/09 17:44:12;;;;;;;4.05;2.05;;;;;;;-3.57;39.79;101190.69;10522409;28;20056;-62
2024/01/09 17:49:14;;;;;;;8.10;2.10;;;;;;;-3.58;39.17;101186.38;10505010;28;20046;-62
2024/01/09 17:54:16;;;;;;;5.30;2.30;;;;;;;-3.58;39.65;101182.13;10502627;28;20052;-62
2024/01/09 17:59:18;;;;;;;6.07;2.67;;;;;;;-3.67;39.53;101182.84;10504002;28;20044;-62
2024/01/09 18:04:20;;;;;;;3.70;2.10;;;;;;;-3.76;38.76;101187.81;10521822;28;20044;-62
2024/01/09 18:09:24;;;;;;;3.53;1.90;;;;;;;-3.78;38.64;101199.69;10521402;28;20556;-62
2024/01/09 18:14:26;;;;;;;5.13;2.20;;;;;;;-3.73;38.40;101192.06;10521029;28;20071;-62
2024/01/09 18:19:28;;;;;;;3.92;2.00;;;;;;;-3.75;38.98;101194.63;10500051;28;20710;-62
2024/01/09 18:24:32;;;;;;;4.28;2.03;;;;;;;-3.77;39.08;101188.63;10501500;28;20044;-62
2024/01/09 18:29:34;;;;;;;3.53;2.25;;;;;;;-3.81;39.25;101194.50;10501538;28;20044;-63
2024/01/09 18:34:38;;;;;;;4.80;2.40;;;;;;;-3.88;37.85;101202.03;10519153;28;20527;-63
2024/01/09 18:39:41;;;;;;;2.67;1.80;;;;;;;-3.90;39.69;101198.59;10519709;28;20508;-63
2024/01/09 18:44:43;;;;;;;4.13;2.00;;;;;;;-4.00;37.78;101189.91;10518506;28;20048;-62
2024/01/09 18:49:45;;;;;;;3.80;2.35;;;;;;;-3.93;37.54;101206.19;10519306;28;20051;-62
2024/01/09 18:54:47;;;;;;;3.65;1.90;;;;;;;-3.99;37.29;101209.50;10519342;28;20056;-62
2024/01/09 18:59:49;;;;;;;3.97;1.77;;;;;;;-3.99;37.73;101203.53;10518716;28;20051;-64
2024/01/09 19:04:52;;;;;;;4.70;2.38;;;;;;;-4.02;37.98;101196.69;10519141;28;20160;-62
2024/01/09 19:09:55;;;;;;;7.45;2.53;;;;;;;-4.10;36.97;101207.59;10518095;28;20109;-62
2024/01/09 19:14:56;;;;;;;5.32;2.45;;;;;;;-4.12;36.57;101205.00;10518185;28;20044;-62
2024/01/09 19:19:58;;;;;;;5.38;2.25;;;;;;;-4.17;36.95;101192.94;10534090;27;20047;-62
2024/01/09 19:25:01;;;;;;;4.82;2.33;;;;;;;-4.07;38.04;101210.19;10517368;28;20063;-62
2024/01/09 19:30:08;;;;;;;6.05;2.45;;;;;;;-4.07;37.86;101211.03;10499620;28;20043;-62
2024/01/09 19:35:11;;;;;;;7.57;3.10;;;;;;;-4.12;38.67;101217.78;10517806;28;20048;-62
2024/01/09 19:40:13;;;;;;;3.85;1.95;;;;;;;-4.19;38.67;101221.03;10514027;28;20477;-62
2024/01/09 19:45:16;;;;;;;3.42;2.00;;;;;;;-4.33;37.77;101227.56;10511850;28;20048;-63
2024/01/09 19:50:18;;;;;;;3.63;1.80;;;;;;;-4.36;37.28;101234.28;10491390;28;20499;-62
2024/01/09 19:55:20;;;;;;;7.00;2.42;;;;;;;-4.38;38.15;101235.94;10513054;28;20044;-63
2024/01/09 20:00:24;;;;;;;6.32;2.65;;;;;;;-4.41;38.17;101234.19;10510540;28;20126;-62
2024/01/09 20:05:26;;;;;;;6.75;2.63;;;;;;;-4.42;38.70;101234.16;10516823;28;20032;-61
2024/01/09 20:10:28;;;;;;;5.43;2.40;;;;;;;-4.48;38.62;101249.34;10514636;28;20117;-62
2024/01/09 20:15:32;;;;;;;6.20;2.63;;;;;;;-4.44;38.62;101241.78;10514469;28;20407;-63
2024/01/09 20:20:34;;;;;;;5.43;2.50;;;;;;;-4.49;38.92;101250.16;10506801;28;20051;-63
2024/01/09 20:25:36;;;;;;;5.72;2.22;;;;;;;-4.55;39.28;101244.13;10512698;28;20063;-62
2024/01/09 20:30:38;;;;;;;5.38;2.90;;;;;;;-4.67;39.02;101245.53;10515070;28;20036;-62
2024/01/09 20:35:40;;;;;;;4.88;2.67;;;;;;;-4.70;39.16;101240.34;10516061;28;20078;-62
2024/01/09 20:40:42;;;;;;;7.32;2.70;;;;;;;-4.70;40.04;101240.34;10520926;28;20058;-63
2024/01/09 20:45:47;;;;;;;4.38;2.00;;;;;;;-4.83;40.43;101240.91;10505985;28;20052;-62
2024/01/09 20:50:49;;;;;;;7.40;3.38;;;;;;;-4.86;40.36;101240.81;10522382;28;20044;-62
2024/01/09 20:55:52;;;;;;;4.70;2.63;;;;;;;-4.93;39.66;101242.34;10522567;28;20051;-62
2024/01/09 21:00:54;;;;;;;4.55;2.17;;;;;;;-4.92;40.43;101236.44;10522134;28;20049;-62
2024/01/09 21:05:56;;;;;;;4.28;2.28;;;;;;;-4.85;40.68;101247.66;10522275;28;20113;-63
2024/01/09 21:10:58;;;;;;;7.05;2.78;;;;;;;-4.96;40.71;101244.84;10521859;28;20062;-62
2024/01/09 21:16:00;;;;;;;5.78;2.55;;;;;;;-4.93;41.77;101249.19;10522246;28;20048;-63
2024/01/09 21:21:02;;;;;;;5.90;2.75;;;;;;;-4.97;42.77;101255.88;10520939;28;20043;-63
2024/01/09 21:26:04;;;;;;;5.35;2.97;;;;;;;-4.97;42.56;101249.94;10522079;28;20047;-63
2024/01/09 21:31:06;;;;;;;5.45;2.65;;;;;;;-4.98;43.39;101249.06;10520742;28;20474;-63
2024/01/09 21:36:09;;;;;;;6.50;3.13;;;;;;;-4.98;43.12;101245.63;10520880;28;20335;-63
2024/01/09 21:41:11;;;;;;;6.53;2.58;;;;;;;-5.12;42.40;101244.44;10520117;28;20056;-64
2024/01/09 21:46:15;;;;;;;8.23;2.38;;;;;;;-5.16;42.59;101237.56;10520406;28;20041;-63
2024/01/09 21:51:17;;;;;;;12.95;3.08;;;;;;;-5.21;42.58;101244.22;10534786;27;20036;-64
2024/01/09 21:56:19;;;;;;;8.65;2.97;;;;;;;-5.40;42.25;101241.22;10501731;28;20050;-63
2024/01/09 22:01:21;;;;;;;5.70;2.78;;;;;;;-5.29;42.71;101240.63;10519902;28;20043;-63
2024/01/09 22:06:24;;;;;;;6.53;3.03;;;;;;;-5.22;43.40;101239.97;10521861;28;20130;-63
2024/01/09 22:11:26;;;;;;;7.28;2.85;;;;;;;-5.23;44.15;101241.63;10520483;28;20086;-63
2024/01/09 22:16:28;;;;;;;10.45;3.42;;;;;;;-5.26;43.20;101228.81;10521327;28;20131;-63
2024/01/09 22:21:30;;;;;;;6.75;4.00;;;;;;;-5.37;43.36;101232.78;10519475;28;20044;-63
2024/01/09 22:26:32;;;;;;;8.27;3.20;;;;;;;-5.39;44.48;101240.41;10520363;28;20166;-62
2024/01/09 22:31:34;;;;;;;6.82;2.95;;;;;;;-5.34;44.50;101243.06;10502434;28;20407;-62
2024/01/09 22:36:37;;;;;;;7.82;3.42;;;;;;;-5.34;44.85;101239.66;10520309;28;20054;-62
2024/01/09 22:41:39;;;;;;;9.68;3.90;;;;;;;-5.34;45.46;101237.09;10519566;28;20074;-63
2024/01/09 22:46:40;;;;;;;4.75;2.83;;;;;;;-5.34;45.81;101237.09;10519334;28;20119;-63
2024/01/09 22:51:43;;;;;;;7.70;3.78;;;;;;;-5.28;45.36;101239.81;10519028;28;20484;-63
2024/01/09 22:56:44;;;;;;;7.95;3.47;;;;;;;-5.29;46.42;101235.50;10519165;28;20055;-63
2024/01/09 23:01:50;;;;;;;5.82;3.40;;;;;;;-5.31;46.05;101238.03;10518117;28;20058;-63
2024/01/09 23:06:52;;;;;;;8.02;3.47;;;;;;;-5.38;45.07;101231.91;10519191;28;20492;-62
2024/01/09 23:11:54;;;;;;;12.13;4.55;;;;;;;-5.62;44.79;101235.53;10518489;28;20138;-62